sensor_id;sensor_type;location;lat;lon;timestamp;temperature;humidity
306;DHT22;137;48.578;9.180;2023-12-28T00:01:51;3.90;98.20
306;DHT22;137;48.578;9.180;2023-12-28T00:04:17;4.30;98.20
306;DHT22;137;48.578;9.180;2023-12-28T00:06:44;4.50;98.20
306;DHT22;137;48.578;9.180;2023-12-28T00:09:11;4.70;98.20
306;DHT22;137;48.578;9.180;2023-12-28T00:11:38;4.80;98.20
306;DHT22;137;48.578;9.180;2023-12-28T00:14:05;4.80;98.20
306;DHT22;137;48.578;9.180;2023-12-28T00:16:33;4.70;98.20
306;DHT22;137;48.578;9.180;2023-12-28T00:19:02;4.40;98.20
306;DHT22;137;48.578;9.180;2023-12-28T00:21:29;4.30;98.20
306;DHT22;137;48.578;9.180;2023-12-28T00:23:56;4.10;98.20
306;DHT22;137;48.578;9.180;2023-12-28T00:26:23;4.00;98.20
306;DHT22;137;48.578;9.180;2023-12-28T00:28:49;3.90;98.20
306;DHT22;137;48.578;9.180;2023-12-28T00:31:16;3.70;98.20
306;DHT22;137;48.578;9.180;2023-12-28T00:33:44;3.70;98.20
306;DHT22;137;48.578;9.180;2023-12-28T00:36:11;3.50;98.20
306;DHT22;137;48.578;9.180;2023-12-28T00:41:03;3.20;98.20
306;DHT22;137;48.578;9.180;2023-12-28T00:43:31;3.00;98.20
306;DHT22;137;48.578;9.180;2023-12-28T00:45:57;2.90;98.20
306;DHT22;137;48.578;9.180;2023-12-28T00:48:24;2.90;98.20
306;DHT22;137;48.578;9.180;2023-12-28T00:50:52;2.90;98.20
306;DHT22;137;48.578;9.180;2023-12-28T00:53:20;2.90;98.20
306;DHT22;137;48.578;9.180;2023-12-28T00:55:48;3.00;98.20
306;DHT22;137;48.578;9.180;2023-12-28T00:58:15;3.00;98.20
306;DHT22;137;48.578;9.180;2023-12-28T01:00:41;3.00;98.20
306;DHT22;137;48.578;9.180;2023-12-28T01:03:08;3.20;98.20
306;DHT22;137;48.578;9.180;2023-12-28T01:05:35;3.30;98.20
306;DHT22;137;48.578;9.180;2023-12-28T01:08:03;3.40;98.20
306;DHT22;137;48.578;9.180;2023-12-28T01:10:30;3.50;98.20
306;DHT22;137;48.578;9.180;2023-12-28T01:12:57;3.50;98.20
306;DHT22;137;48.578;9.180;2023-12-28T01:15:24;3.50;98.20
306;DHT22;137;48.578;9.180;2023-12-28T01:17:51;3.50;98.20
306;DHT22;137;48.578;9.180;2023-12-28T01:20:17;3.50;98.20
306;DHT22;137;48.578;9.180;2023-12-28T01:22:44;3.60;98.20
306;DHT22;137;48.578;9.180;2023-12-28T01:25:12;3.80;98.20
306;DHT22;137;48.578;9.180;2023-12-28T01:27:38;3.80;98.20
306;DHT22;137;48.578;9.180;2023-12-28T01:30:06;3.80;98.20
306;DHT22;137;48.578;9.180;2023-12-28T01:32:33;3.80;98.20
306;DHT22;137;48.578;9.180;2023-12-28T01:35:00;3.90;98.20
306;DHT22;137;48.578;9.180;2023-12-28T01:37:27;3.70;98.20
306;DHT22;137;48.578;9.180;2023-12-28T01:39:56;3.60;98.20
306;DHT22;137;48.578;9.180;2023-12-28T01:42:24;3.40;98.20
306;DHT22;137;48.578;9.180;2023-12-28T01:44:51;3.30;98.20
306;DHT22;137;48.578;9.180;2023-12-28T01:47:18;3.20;98.20
306;DHT22;137;48.578;9.180;2023-12-28T01:49:45;3.20;98.20
306;DHT22;137;48.578;9.180;2023-12-28T01:52:12;3.20;98.20
306;DHT22;137;48.578;9.180;2023-12-28T01:54:39;3.20;98.20
306;DHT22;137;48.578;9.180;2023-12-28T01:57:07;3.00;98.20
306;DHT22;137;48.578;9.180;2023-12-28T01:59:35;2.90;98.20
306;DHT22;137;48.578;9.180;2023-12-28T02:02:02;2.80;98.20
306;DHT22;137;48.578;9.180;2023-12-28T02:04:29;2.70;98.20
306;DHT22;137;48.578;9.180;2023-12-28T02:06:57;2.60;98.20
306;DHT22;137;48.578;9.180;2023-12-28T02:09:24;2.50;98.20
306;DHT22;137;48.578;9.180;2023-12-28T02:11:51;2.40;98.20
306;DHT22;137;48.578;9.180;2023-12-28T02:14:19;2.50;98.20
306;DHT22;137;48.578;9.180;2023-12-28T02:16:52;2.60;98.20
306;DHT22;137;48.578;9.180;2023-12-28T02:19:30;2.70;98.20
306;DHT22;137;48.578;9.180;2023-12-28T02:21:59;2.80;98.20
306;DHT22;137;48.578;9.180;2023-12-28T02:24:26;3.00;98.20
306;DHT22;137;48.578;9.180;2023-12-28T02:26:54;3.10;98.20
306;DHT22;137;48.578;9.180;2023-12-28T02:29:21;3.30;98.20
306;DHT22;137;48.578;9.180;2023-12-28T02:31:57;3.60;98.20
306;DHT22;137;48.578;9.180;2023-12-28T02:34:35;3.80;98.20
306;DHT22;137;48.578;9.180;2023-12-28T02:37:05;3.90;98.20
306;DHT22;137;48.578;9.180;2023-12-28T02:39:32;4.00;98.20
306;DHT22;137;48.578;9.180;2023-12-28T02:42:01;4.10;98.20
306;DHT22;137;48.578;9.180;2023-12-28T02:44:27;4.20;98.20
306;DHT22;137;48.578;9.180;2023-12-28T02:46:54;4.30;98.20
306;DHT22;137;48.578;9.180;2023-12-28T02:49:21;4.40;98.20
306;DHT22;137;48.578;9.180;2023-12-28T02:51:48;4.50;98.20
306;DHT22;137;48.578;9.180;2023-12-28T02:54:14;4.60;98.20
306;DHT22;137;48.578;9.180;2023-12-28T02:56:41;4.70;98.20
306;DHT22;137;48.578;9.180;2023-12-28T02:59:09;4.70;98.20
306;DHT22;137;48.578;9.180;2023-12-28T03:01:36;4.80;98.20
306;DHT22;137;48.578;9.180;2023-12-28T03:04:03;4.90;98.20
306;DHT22;137;48.578;9.180;2023-12-28T03:06:30;4.90;98.20
306;DHT22;137;48.578;9.180;2023-12-28T03:08:56;5.00;98.20
306;DHT22;137;48.578;9.180;2023-12-28T03:11:23;5.10;98.20
306;DHT22;137;48.578;9.180;2023-12-28T03:13:50;5.10;98.20
306;DHT22;137;48.578;9.180;2023-12-28T03:16:18;5.10;98.20
306;DHT22;137;48.578;9.180;2023-12-28T03:18:44;5.10;98.20
306;DHT22;137;48.578;9.180;2023-12-28T03:21:11;5.00;98.20
306;DHT22;137;48.578;9.180;2023-12-28T03:23:38;5.00;98.20
306;DHT22;137;48.578;9.180;2023-12-28T03:26:05;4.90;98.20
306;DHT22;137;48.578;9.180;2023-12-28T03:28:31;5.00;98.20
306;DHT22;137;48.578;9.180;2023-12-28T03:30:58;5.00;98.20
306;DHT22;137;48.578;9.180;2023-12-28T03:33:27;5.10;98.20
306;DHT22;137;48.578;9.180;2023-12-28T03:35:53;5.10;98.20
306;DHT22;137;48.578;9.180;2023-12-28T03:38:21;5.20;98.20
306;DHT22;137;48.578;9.180;2023-12-28T03:40:47;5.30;98.20
306;DHT22;137;48.578;9.180;2023-12-28T03:43:15;5.30;98.20
306;DHT22;137;48.578;9.180;2023-12-28T03:45:42;5.40;98.20
306;DHT22;137;48.578;9.180;2023-12-28T03:48:09;5.40;98.20
306;DHT22;137;48.578;9.180;2023-12-28T03:50:37;5.40;98.20
306;DHT22;137;48.578;9.180;2023-12-28T03:53:04;5.40;98.20
306;DHT22;137;48.578;9.180;2023-12-28T03:55:30;5.40;98.20
306;DHT22;137;48.578;9.180;2023-12-28T03:57:57;5.40;98.20
306;DHT22;137;48.578;9.180;2023-12-28T04:00:24;5.40;98.20
306;DHT22;137;48.578;9.180;2023-12-28T04:02:51;5.40;98.20
306;DHT22;137;48.578;9.180;2023-12-28T04:05:18;5.40;98.20
306;DHT22;137;48.578;9.180;2023-12-28T04:07:46;5.40;98.20
306;DHT22;137;48.578;9.180;2023-12-28T04:10:12;5.50;98.20
306;DHT22;137;48.578;9.180;2023-12-28T04:12:39;5.60;98.20
306;DHT22;137;48.578;9.180;2023-12-28T04:15:06;5.70;98.20
306;DHT22;137;48.578;9.180;2023-12-28T04:17:33;5.80;98.20
306;DHT22;137;48.578;9.180;2023-12-28T04:20:00;5.90;98.20
306;DHT22;137;48.578;9.180;2023-12-28T04:22:26;5.90;98.20
306;DHT22;137;48.578;9.180;2023-12-28T04:24:54;6.00;98.20
306;DHT22;137;48.578;9.180;2023-12-28T04:27:21;6.00;98.20
306;DHT22;137;48.578;9.180;2023-12-28T04:29:48;6.10;98.20
306;DHT22;137;48.578;9.180;2023-12-28T04:32:14;6.20;98.20
306;DHT22;137;48.578;9.180;2023-12-28T04:34:41;6.20;98.20
306;DHT22;137;48.578;9.180;2023-12-28T04:37:08;6.20;98.20
306;DHT22;137;48.578;9.180;2023-12-28T04:39:35;6.20;98.20
306;DHT22;137;48.578;9.180;2023-12-28T04:42:05;6.20;98.20
306;DHT22;137;48.578;9.180;2023-12-28T04:44:31;6.20;98.20
306;DHT22;137;48.578;9.180;2023-12-28T04:46:58;6.20;98.20
306;DHT22;137;48.578;9.180;2023-12-28T04:49:26;6.20;98.20
306;DHT22;137;48.578;9.180;2023-12-28T04:51:53;6.20;98.20
306;DHT22;137;48.578;9.180;2023-12-28T04:54:20;6.30;98.20
306;DHT22;137;48.578;9.180;2023-12-28T04:56:47;6.30;98.20
306;DHT22;137;48.578;9.180;2023-12-28T04:59:15;6.40;98.20
306;DHT22;137;48.578;9.180;2023-12-28T05:01:42;6.40;98.20
306;DHT22;137;48.578;9.180;2023-12-28T05:04:09;6.40;98.20
306;DHT22;137;48.578;9.180;2023-12-28T05:06:35;6.50;98.20
306;DHT22;137;48.578;9.180;2023-12-28T05:09:02;6.50;98.20
306;DHT22;137;48.578;9.180;2023-12-28T05:11:29;6.50;98.20
306;DHT22;137;48.578;9.180;2023-12-28T05:13:56;6.60;98.20
306;DHT22;137;48.578;9.180;2023-12-28T05:16:24;6.60;98.20
306;DHT22;137;48.578;9.180;2023-12-28T05:18:51;6.60;98.20
306;DHT22;137;48.578;9.180;2023-12-28T05:21:18;6.50;98.20
306;DHT22;137;48.578;9.180;2023-12-28T05:23:46;6.50;98.20
306;DHT22;137;48.578;9.180;2023-12-28T05:26:12;6.50;98.20
306;DHT22;137;48.578;9.180;2023-12-28T05:28:39;6.50;98.20
306;DHT22;137;48.578;9.180;2023-12-28T05:31:06;6.60;98.20
306;DHT22;137;48.578;9.180;2023-12-28T05:33:34;6.60;98.20
306;DHT22;137;48.578;9.180;2023-12-28T05:36:00;6.70;98.20
306;DHT22;137;48.578;9.180;2023-12-28T05:38:27;6.80;98.20
306;DHT22;137;48.578;9.180;2023-12-28T05:40:54;6.80;98.20
306;DHT22;137;48.578;9.180;2023-12-28T05:43:21;6.80;98.20
306;DHT22;137;48.578;9.180;2023-12-28T05:45:47;7.00;98.20
306;DHT22;137;48.578;9.180;2023-12-28T05:48:14;7.10;98.20
306;DHT22;137;48.578;9.180;2023-12-28T05:50:42;7.20;98.20
306;DHT22;137;48.578;9.180;2023-12-28T05:53:09;7.30;98.20
306;DHT22;137;48.578;9.180;2023-12-28T05:55:39;7.30;98.20
306;DHT22;137;48.578;9.180;2023-12-28T05:58:06;7.40;98.20
306;DHT22;137;48.578;9.180;2023-12-28T06:00:32;7.40;98.20
306;DHT22;137;48.578;9.180;2023-12-28T06:03:03;7.40;98.20
306;DHT22;137;48.578;9.180;2023-12-28T06:05:42;7.30;98.20
306;DHT22;137;48.578;9.180;2023-12-28T06:08:09;7.30;98.20
306;DHT22;137;48.578;9.180;2023-12-28T06:10:36;7.30;98.20
306;DHT22;137;48.578;9.180;2023-12-28T06:13:03;7.30;98.20
306;DHT22;137;48.578;9.180;2023-12-28T06:15:30;7.30;98.20
306;DHT22;137;48.578;9.180;2023-12-28T06:18:00;7.40;98.20
306;DHT22;137;48.578;9.180;2023-12-28T06:20:34;7.40;98.20
306;DHT22;137;48.578;9.180;2023-12-28T06:23:14;7.40;98.20
306;DHT22;137;48.578;9.180;2023-12-28T06:25:44;7.30;98.20
306;DHT22;137;48.578;9.180;2023-12-28T06:28:18;7.30;98.20
306;DHT22;137;48.578;9.180;2023-12-28T06:30:46;7.30;98.20
306;DHT22;137;48.578;9.180;2023-12-28T06:33:17;7.20;98.20
306;DHT22;137;48.578;9.180;2023-12-28T06:35:48;7.20;98.20
306;DHT22;137;48.578;9.180;2023-12-28T06:38:27;7.10;98.20
306;DHT22;137;48.578;9.180;2023-12-28T06:41:12;7.10;98.20
306;DHT22;137;48.578;9.180;2023-12-28T06:43:39;7.10;98.20
306;DHT22;137;48.578;9.180;2023-12-28T06:46:06;7.00;98.20
306;DHT22;137;48.578;9.180;2023-12-28T06:48:33;7.00;98.20
306;DHT22;137;48.578;9.180;2023-12-28T06:51:00;7.00;98.20
306;DHT22;137;48.578;9.180;2023-12-28T06:53:28;7.10;98.20
306;DHT22;137;48.578;9.180;2023-12-28T06:55:55;7.10;98.20
306;DHT22;137;48.578;9.180;2023-12-28T06:58:22;7.10;98.20
306;DHT22;137;48.578;9.180;2023-12-28T07:00:49;7.20;98.20
306;DHT22;137;48.578;9.180;2023-12-28T07:03:16;7.20;98.20
306;DHT22;137;48.578;9.180;2023-12-28T07:05:43;7.40;98.20
306;DHT22;137;48.578;9.180;2023-12-28T07:08:10;7.50;98.20
306;DHT22;137;48.578;9.180;2023-12-28T07:10:38;7.70;98.20
306;DHT22;137;48.578;9.180;2023-12-28T07:13:05;7.80;98.20
306;DHT22;137;48.578;9.180;2023-12-28T07:15:31;7.90;98.20
306;DHT22;137;48.578;9.180;2023-12-28T07:17:58;8.00;98.20
306;DHT22;137;48.578;9.180;2023-12-28T07:20:25;8.00;98.20
306;DHT22;137;48.578;9.180;2023-12-28T07:22:51;8.10;98.20
306;DHT22;137;48.578;9.180;2023-12-28T07:25:18;8.20;98.20
306;DHT22;137;48.578;9.180;2023-12-28T07:27:47;8.20;98.20
306;DHT22;137;48.578;9.180;2023-12-28T07:30:17;8.30;98.20
306;DHT22;137;48.578;9.180;2023-12-28T07:32:43;8.30;98.20
306;DHT22;137;48.578;9.180;2023-12-28T07:35:11;8.30;98.20
306;DHT22;137;48.578;9.180;2023-12-28T07:37:37;8.30;98.20
306;DHT22;137;48.578;9.180;2023-12-28T07:40:06;8.30;98.20
306;DHT22;137;48.578;9.180;2023-12-28T07:42:33;8.30;98.20
306;DHT22;137;48.578;9.180;2023-12-28T07:45:01;8.30;98.20
306;DHT22;137;48.578;9.180;2023-12-28T07:47:27;8.40;98.20
306;DHT22;137;48.578;9.180;2023-12-28T07:49:54;8.40;98.20
306;DHT22;137;48.578;9.180;2023-12-28T07:52:21;8.40;98.20
306;DHT22;137;48.578;9.180;2023-12-28T07:54:48;8.40;98.20
306;DHT22;137;48.578;9.180;2023-12-28T07:57:15;8.40;98.20
306;DHT22;137;48.578;9.180;2023-12-28T07:59:41;8.40;98.20
306;DHT22;137;48.578;9.180;2023-12-28T08:02:10;8.50;98.20
306;DHT22;137;48.578;9.180;2023-12-28T08:04:37;8.50;98.20
306;DHT22;137;48.578;9.180;2023-12-28T08:07:05;8.50;98.20
306;DHT22;137;48.578;9.180;2023-12-28T08:09:32;8.50;98.20
306;DHT22;137;48.578;9.180;2023-12-28T08:11:59;8.50;98.20
306;DHT22;137;48.578;9.180;2023-12-28T08:14:28;8.60;98.20
306;DHT22;137;48.578;9.180;2023-12-28T08:16:54;8.60;98.20
306;DHT22;137;48.578;9.180;2023-12-28T08:19:22;8.70;98.20
306;DHT22;137;48.578;9.180;2023-12-28T08:21:49;8.70;98.20
306;DHT22;137;48.578;9.180;2023-12-28T08:24:16;8.80;98.20
306;DHT22;137;48.578;9.180;2023-12-28T08:26:42;8.90;98.20
306;DHT22;137;48.578;9.180;2023-12-28T08:29:09;9.00;98.20
306;DHT22;137;48.578;9.180;2023-12-28T08:31:36;9.10;98.20
306;DHT22;137;48.578;9.180;2023-12-28T08:34:03;9.20;98.20
306;DHT22;137;48.578;9.180;2023-12-28T08:36:31;9.20;98.20
306;DHT22;137;48.578;9.180;2023-12-28T08:38:58;9.30;98.20
306;DHT22;137;48.578;9.180;2023-12-28T08:41:31;9.40;98.20
306;DHT22;137;48.578;9.180;2023-12-28T08:44:03;9.40;98.20
306;DHT22;137;48.578;9.180;2023-12-28T08:46:30;9.40;98.20
306;DHT22;137;48.578;9.180;2023-12-28T08:49:00;9.50;98.20
306;DHT22;137;48.578;9.180;2023-12-28T08:51:27;9.50;98.20
306;DHT22;137;48.578;9.180;2023-12-28T08:53:55;9.50;98.20
306;DHT22;137;48.578;9.180;2023-12-28T08:56:22;9.50;98.20
306;DHT22;137;48.578;9.180;2023-12-28T08:58:49;9.50;98.20
306;DHT22;137;48.578;9.180;2023-12-28T09:01:18;9.50;98.20
306;DHT22;137;48.578;9.180;2023-12-28T09:03:45;9.50;98.20
306;DHT22;137;48.578;9.180;2023-12-28T09:06:12;9.50;98.20
306;DHT22;137;48.578;9.180;2023-12-28T09:08:42;9.50;98.20
306;DHT22;137;48.578;9.180;2023-12-28T09:11:11;9.50;98.20
306;DHT22;137;48.578;9.180;2023-12-28T09:13:38;9.50;98.20
306;DHT22;137;48.578;9.180;2023-12-28T09:16:06;9.40;98.20
306;DHT22;137;48.578;9.180;2023-12-28T09:18:34;9.40;98.20
306;DHT22;137;48.578;9.180;2023-12-28T09:21:02;9.40;98.20
306;DHT22;137;48.578;9.180;2023-12-28T09:23:30;9.40;98.20
306;DHT22;137;48.578;9.180;2023-12-28T09:25:58;9.40;98.20
306;DHT22;137;48.578;9.180;2023-12-28T09:28:26;9.50;98.20
306;DHT22;137;48.578;9.180;2023-12-28T09:30:52;9.40;98.20
306;DHT22;137;48.578;9.180;2023-12-28T09:33:19;9.40;98.20
306;DHT22;137;48.578;9.180;2023-12-28T09:35:46;9.40;98.20
306;DHT22;137;48.578;9.180;2023-12-28T09:38:13;9.50;98.20
306;DHT22;137;48.578;9.180;2023-12-28T09:40:41;9.50;98.20
306;DHT22;137;48.578;9.180;2023-12-28T09:43:13;9.60;98.20
306;DHT22;137;48.578;9.180;2023-12-28T09:45:41;9.60;98.20
306;DHT22;137;48.578;9.180;2023-12-28T09:48:08;9.70;98.20
306;DHT22;137;48.578;9.180;2023-12-28T09:50:36;9.80;98.20
306;DHT22;137;48.578;9.180;2023-12-28T09:53:03;10.00;98.20
306;DHT22;137;48.578;9.180;2023-12-28T09:55:30;10.10;98.20
306;DHT22;137;48.578;9.180;2023-12-28T09:57:58;10.20;98.20
306;DHT22;137;48.578;9.180;2023-12-28T10:00:26;10.40;98.20
306;DHT22;137;48.578;9.180;2023-12-28T10:02:54;10.50;98.20
306;DHT22;137;48.578;9.180;2023-12-28T10:05:21;10.60;98.20
306;DHT22;137;48.578;9.180;2023-12-28T10:07:50;10.70;98.20
306;DHT22;137;48.578;9.180;2023-12-28T10:10:17;10.80;98.20
306;DHT22;137;48.578;9.180;2023-12-28T10:12:46;10.90;98.20
306;DHT22;137;48.578;9.180;2023-12-28T10:15:13;11.00;98.20
306;DHT22;137;48.578;9.180;2023-12-28T10:17:40;11.00;98.20
306;DHT22;137;48.578;9.180;2023-12-28T10:20:09;11.00;98.20
306;DHT22;137;48.578;9.180;2023-12-28T10:22:37;11.10;98.20
306;DHT22;137;48.578;9.180;2023-12-28T10:25:04;11.20;98.20
306;DHT22;137;48.578;9.180;2023-12-28T10:27:32;11.30;98.20
306;DHT22;137;48.578;9.180;2023-12-28T10:30:00;11.30;98.20
306;DHT22;137;48.578;9.180;2023-12-28T10:32:27;11.40;98.20
306;DHT22;137;48.578;9.180;2023-12-28T10:34:54;11.50;98.20
306;DHT22;137;48.578;9.180;2023-12-28T10:37:26;11.60;98.20
306;DHT22;137;48.578;9.180;2023-12-28T10:39:54;11.70;98.20
306;DHT22;137;48.578;9.180;2023-12-28T10:42:51;11.70;98.20
306;DHT22;137;48.578;9.180;2023-12-28T10:45:25;11.60;98.20
306;DHT22;137;48.578;9.180;2023-12-28T10:47:56;11.50;98.20
306;DHT22;137;48.578;9.180;2023-12-28T10:50:38;11.40;98.20
306;DHT22;137;48.578;9.180;2023-12-28T10:53:17;11.40;98.20
306;DHT22;137;48.578;9.180;2023-12-28T10:55:51;11.50;98.20
306;DHT22;137;48.578;9.180;2023-12-28T10:58:26;11.40;98.20
306;DHT22;137;48.578;9.180;2023-12-28T11:00:58;11.40;98.20
306;DHT22;137;48.578;9.180;2023-12-28T11:03:30;11.40;98.20
306;DHT22;137;48.578;9.180;2023-12-28T11:05:58;11.40;98.20
306;DHT22;137;48.578;9.180;2023-12-28T11:08:26;11.50;98.20
306;DHT22;137;48.578;9.180;2023-12-28T11:10:54;11.50;98.20
306;DHT22;137;48.578;9.180;2023-12-28T11:13:23;11.60;98.20
306;DHT22;137;48.578;9.180;2023-12-28T11:15:53;11.60;98.20
306;DHT22;137;48.578;9.180;2023-12-28T11:18:21;11.70;98.20
306;DHT22;137;48.578;9.180;2023-12-28T11:20:53;11.80;98.20
306;DHT22;137;48.578;9.180;2023-12-28T11:23:20;11.90;98.20
306;DHT22;137;48.578;9.180;2023-12-28T11:25:49;11.90;98.20
306;DHT22;137;48.578;9.180;2023-12-28T11:28:19;11.90;98.20
306;DHT22;137;48.578;9.180;2023-12-28T11:30:51;11.90;98.20
306;DHT22;137;48.578;9.180;2023-12-28T11:33:18;12.00;98.20
306;DHT22;137;48.578;9.180;2023-12-28T11:35:47;12.00;98.20
306;DHT22;137;48.578;9.180;2023-12-28T11:38:17;12.00;98.20
306;DHT22;137;48.578;9.180;2023-12-28T11:40:47;12.00;98.20
306;DHT22;137;48.578;9.180;2023-12-28T11:43:18;12.00;98.20
306;DHT22;137;48.578;9.180;2023-12-28T11:45:49;12.00;98.20
306;DHT22;137;48.578;9.180;2023-12-28T11:48:23;12.00;98.20
306;DHT22;137;48.578;9.180;2023-12-28T11:50:54;12.00;98.20
306;DHT22;137;48.578;9.180;2023-12-28T11:53:22;12.00;98.20
306;DHT22;137;48.578;9.180;2023-12-28T11:55:50;12.00;98.20
306;DHT22;137;48.578;9.180;2023-12-28T11:58:17;12.10;98.20
306;DHT22;137;48.578;9.180;2023-12-28T12:00:44;12.00;98.20
306;DHT22;137;48.578;9.180;2023-12-28T12:03:12;12.00;98.20
306;DHT22;137;48.578;9.180;2023-12-28T12:05:39;12.00;98.20
306;DHT22;137;48.578;9.180;2023-12-28T12:08:07;12.10;98.20
306;DHT22;137;48.578;9.180;2023-12-28T12:10:36;12.10;98.20
306;DHT22;137;48.578;9.180;2023-12-28T12:13:09;12.10;98.20
306;DHT22;137;48.578;9.180;2023-12-28T12:15:40;12.10;98.20
306;DHT22;137;48.578;9.180;2023-12-28T12:18:25;12.00;98.20
306;DHT22;137;48.578;9.180;2023-12-28T12:20:52;12.00;98.20
306;DHT22;137;48.578;9.180;2023-12-28T12:23:19;11.90;98.20
306;DHT22;137;48.578;9.180;2023-12-28T12:25:47;11.90;98.20
306;DHT22;137;48.578;9.180;2023-12-28T12:28:18;11.90;98.20
306;DHT22;137;48.578;9.180;2023-12-28T12:30:50;11.80;98.20
306;DHT22;137;48.578;9.180;2023-12-28T12:33:17;11.80;98.20
306;DHT22;137;48.578;9.180;2023-12-28T12:35:44;11.80;98.20
306;DHT22;137;48.578;9.180;2023-12-28T12:38:11;11.70;98.20
306;DHT22;137;48.578;9.180;2023-12-28T12:40:41;11.70;98.20
306;DHT22;137;48.578;9.180;2023-12-28T12:43:08;11.60;98.20
306;DHT22;137;48.578;9.180;2023-12-28T12:45:36;11.50;98.20
306;DHT22;137;48.578;9.180;2023-12-28T12:48:04;11.50;98.20
306;DHT22;137;48.578;9.180;2023-12-28T12:50:31;11.50;98.20
306;DHT22;137;48.578;9.180;2023-12-28T12:52:59;11.50;98.20
306;DHT22;137;48.578;9.180;2023-12-28T12:55:26;11.40;98.20
306;DHT22;137;48.578;9.180;2023-12-28T12:57:53;11.40;98.20
306;DHT22;137;48.578;9.180;2023-12-28T13:00:21;11.40;98.20
306;DHT22;137;48.578;9.180;2023-12-28T13:02:50;11.30;98.20
306;DHT22;137;48.578;9.180;2023-12-28T13:05:19;11.30;98.20
306;DHT22;137;48.578;9.180;2023-12-28T13:07:45;11.30;98.20
306;DHT22;137;48.578;9.180;2023-12-28T13:10:12;11.30;98.20
306;DHT22;137;48.578;9.180;2023-12-28T13:12:39;11.30;98.20
306;DHT22;137;48.578;9.180;2023-12-28T13:15:07;11.30;98.20
306;DHT22;137;48.578;9.180;2023-12-28T13:17:35;11.40;98.20
306;DHT22;137;48.578;9.180;2023-12-28T13:20:04;11.40;98.20
306;DHT22;137;48.578;9.180;2023-12-28T13:22:31;11.40;98.20
306;DHT22;137;48.578;9.180;2023-12-28T13:24:59;11.40;98.20
306;DHT22;137;48.578;9.180;2023-12-28T13:27:27;11.40;98.20
306;DHT22;137;48.578;9.180;2023-12-28T13:29:53;11.30;98.20
306;DHT22;137;48.578;9.180;2023-12-28T13:32:20;11.30;98.20
306;DHT22;137;48.578;9.180;2023-12-28T13:34:48;11.30;98.20
306;DHT22;137;48.578;9.180;2023-12-28T13:37:17;11.30;98.20
306;DHT22;137;48.578;9.180;2023-12-28T13:39:44;11.20;98.20
306;DHT22;137;48.578;9.180;2023-12-28T13:42:12;11.20;98.20
306;DHT22;137;48.578;9.180;2023-12-28T13:44:39;11.10;98.20
306;DHT22;137;48.578;9.180;2023-12-28T13:47:06;11.10;98.20
306;DHT22;137;48.578;9.180;2023-12-28T13:49:33;11.00;98.20
306;DHT22;137;48.578;9.180;2023-12-28T13:52:00;11.00;98.20
306;DHT22;137;48.578;9.180;2023-12-28T13:54:28;10.90;98.20
306;DHT22;137;48.578;9.180;2023-12-28T13:56:55;10.80;98.20
306;DHT22;137;48.578;9.180;2023-12-28T13:59:24;10.80;98.20
306;DHT22;137;48.578;9.180;2023-12-28T14:01:51;10.80;98.20
306;DHT22;137;48.578;9.180;2023-12-28T14:04:17;10.80;98.20
306;DHT22;137;48.578;9.180;2023-12-28T14:06:44;10.80;98.20
306;DHT22;137;48.578;9.180;2023-12-28T14:09:11;10.80;98.20
306;DHT22;137;48.578;9.180;2023-12-28T14:11:41;10.70;98.20
306;DHT22;137;48.578;9.180;2023-12-28T14:14:08;10.70;98.20
306;DHT22;137;48.578;9.180;2023-12-28T14:16:34;10.60;98.20
306;DHT22;137;48.578;9.180;2023-12-28T14:19:01;10.50;98.20
306;DHT22;137;48.578;9.180;2023-12-28T14:21:28;10.40;98.20
306;DHT22;137;48.578;9.180;2023-12-28T14:23:55;10.30;98.20
306;DHT22;137;48.578;9.180;2023-12-28T14:26:22;10.30;98.20
306;DHT22;137;48.578;9.180;2023-12-28T14:28:51;10.20;98.20
306;DHT22;137;48.578;9.180;2023-12-28T14:31:19;10.10;98.20
306;DHT22;137;48.578;9.180;2023-12-28T14:33:46;10.10;98.20
306;DHT22;137;48.578;9.180;2023-12-28T14:36:23;10.00;98.20
306;DHT22;137;48.578;9.180;2023-12-28T14:38:50;10.00;98.20
306;DHT22;137;48.578;9.180;2023-12-28T14:41:17;10.00;98.20
306;DHT22;137;48.578;9.180;2023-12-28T14:43:44;9.90;98.20
306;DHT22;137;48.578;9.180;2023-12-28T14:46:12;9.90;98.20
306;DHT22;137;48.578;9.180;2023-12-28T14:48:38;9.90;98.20
306;DHT22;137;48.578;9.180;2023-12-28T14:51:05;9.90;98.20
306;DHT22;137;48.578;9.180;2023-12-28T14:53:32;9.80;98.20
306;DHT22;137;48.578;9.180;2023-12-28T14:55:59;9.80;98.20
306;DHT22;137;48.578;9.180;2023-12-28T14:58:26;9.70;98.20
306;DHT22;137;48.578;9.180;2023-12-28T15:00:52;9.70;98.20
306;DHT22;137;48.578;9.180;2023-12-28T15:03:21;9.70;98.20
306;DHT22;137;48.578;9.180;2023-12-28T15:05:48;9.60;98.20
306;DHT22;137;48.578;9.180;2023-12-28T15:08:15;9.60;98.20
306;DHT22;137;48.578;9.180;2023-12-28T15:10:42;9.50;98.20
306;DHT22;137;48.578;9.180;2023-12-28T15:13:10;9.40;98.20
306;DHT22;137;48.578;9.180;2023-12-28T15:15:37;9.30;98.20
306;DHT22;137;48.578;9.180;2023-12-28T15:18:05;9.30;98.20
306;DHT22;137;48.578;9.180;2023-12-28T15:20:34;9.30;98.20
306;DHT22;137;48.578;9.180;2023-12-28T15:23:01;9.30;98.20
306;DHT22;137;48.578;9.180;2023-12-28T15:25:28;9.30;98.20
306;DHT22;137;48.578;9.180;2023-12-28T15:27:55;9.20;98.20
306;DHT22;137;48.578;9.180;2023-12-28T15:30:22;9.20;98.20
306;DHT22;137;48.578;9.180;2023-12-28T15:32:49;9.20;98.20
306;DHT22;137;48.578;9.180;2023-12-28T15:35:15;9.10;98.20
306;DHT22;137;48.578;9.180;2023-12-28T15:37:44;9.10;98.20
306;DHT22;137;48.578;9.180;2023-12-28T15:40:11;9.10;98.20
306;DHT22;137;48.578;9.180;2023-12-28T15:42:37;9.10;98.20
306;DHT22;137;48.578;9.180;2023-12-28T15:45:05;9.00;98.20
306;DHT22;137;48.578;9.180;2023-12-28T15:47:32;9.00;98.20
306;DHT22;137;48.578;9.180;2023-12-28T15:49:59;8.90;98.20
306;DHT22;137;48.578;9.180;2023-12-28T15:52:26;8.80;98.20
306;DHT22;137;48.578;9.180;2023-12-28T15:54:54;8.70;98.20
306;DHT22;137;48.578;9.180;2023-12-28T15:57:21;8.70;98.20
306;DHT22;137;48.578;9.180;2023-12-28T15:59:48;8.60;98.20
306;DHT22;137;48.578;9.180;2023-12-28T16:02:15;8.60;98.20
306;DHT22;137;48.578;9.180;2023-12-28T16:04:42;8.70;98.20
306;DHT22;137;48.578;9.180;2023-12-28T16:07:09;8.70;98.20
306;DHT22;137;48.578;9.180;2023-12-28T16:09:36;8.70;98.20
306;DHT22;137;48.578;9.180;2023-12-28T16:12:05;8.70;98.20
306;DHT22;137;48.578;9.180;2023-12-28T16:14:34;8.60;98.20
306;DHT22;137;48.578;9.180;2023-12-28T16:17:01;8.60;98.20
306;DHT22;137;48.578;9.180;2023-12-28T16:19:29;8.60;98.20
306;DHT22;137;48.578;9.180;2023-12-28T16:21:56;8.60;98.20
306;DHT22;137;48.578;9.180;2023-12-28T16:24:23;8.70;98.20
306;DHT22;137;48.578;9.180;2023-12-28T16:26:50;8.70;98.20
306;DHT22;137;48.578;9.180;2023-12-28T16:29:18;8.70;98.20
306;DHT22;137;48.578;9.180;2023-12-28T16:31:44;8.70;98.20
306;DHT22;137;48.578;9.180;2023-12-28T16:34:11;8.70;98.20
306;DHT22;137;48.578;9.180;2023-12-28T16:36:38;8.70;98.20
306;DHT22;137;48.578;9.180;2023-12-28T16:39:05;8.70;98.20
306;DHT22;137;48.578;9.180;2023-12-28T16:41:32;8.70;98.20
306;DHT22;137;48.578;9.180;2023-12-28T16:43:59;8.70;98.20
306;DHT22;137;48.578;9.180;2023-12-28T16:46:27;8.70;98.20
306;DHT22;137;48.578;9.180;2023-12-28T16:48:54;8.70;98.20
306;DHT22;137;48.578;9.180;2023-12-28T16:51:20;8.70;98.20
306;DHT22;137;48.578;9.180;2023-12-28T16:53:47;8.70;98.20